createdAt,value
2023-01-21T00:01:04.344Z,23.60
2023-01-21T00:03:33.688Z,15.40
2023-01-21T00:06:00.288Z,25.25
2023-01-21T00:08:27.491Z,13.55
2023-01-21T00:10:54.311Z,19.80
2023-01-21T00:13:21.327Z,19.17
2023-01-21T00:15:50.431Z,17.65
2023-01-21T00:18:18.974Z,18.17
2023-01-21T00:20:46.209Z,17.35
2023-01-21T00:23:13.076Z,18.25
2023-01-21T00:25:39.631Z,14.43
2023-01-21T00:28:06.016Z,20.00
2023-01-21T00:30:32.674Z,18.42
2023-01-21T00:32:59.180Z,20.48
2023-01-21T00:35:25.664Z,13.57
2023-01-21T00:37:52.516Z,18.50
2023-01-21T00:40:21.458Z,17.88
2023-01-21T00:42:47.893Z,14.80
2023-01-21T00:45:14.439Z,19.55
2023-01-21T00:47:40.835Z,14.60
2023-01-21T00:50:08.783Z,17.70
2023-01-21T00:52:38.569Z,16.70
2023-01-21T00:55:06.040Z,15.25
2023-01-21T00:57:35.208Z,17.88
2023-01-21T01:00:05.173Z,17.30
2023-01-21T01:02:34.736Z,18.20
2023-01-21T01:05:01.238Z,16.23
2023-01-21T01:07:27.680Z,22.67
2023-01-21T01:09:54.171Z,16.48
2023-01-21T01:12:20.651Z,23.90
2023-01-21T01:14:47.524Z,17.73
2023-01-21T01:17:13.917Z,17.55
2023-01-21T01:19:40.275Z,16.45
2023-01-21T01:22:06.686Z,16.55
2023-01-21T01:24:33.168Z,13.48
2023-01-21T01:26:59.662Z,23.90
2023-01-21T01:29:28.629Z,17.17
2023-01-21T01:31:57.817Z,21.80
2023-01-21T01:34:26.515Z,13.10
2023-01-21T01:36:53.045Z,13.90
2023-01-21T01:39:19.523Z,17.45
2023-01-21T01:41:46.109Z,11.65
2023-01-21T01:44:53.074Z,14.55
2023-01-21T01:47:25.787Z,15.48
2023-01-21T01:49:52.429Z,10.45
2023-01-21T01:52:20.089Z,13.65
2023-01-21T01:54:53.048Z,15.18
2023-01-21T01:57:22.906Z,9.98
2023-01-21T01:59:50.448Z,12.52
2023-01-21T02:02:19.917Z,12.63
2023-01-21T02:04:53.248Z,12.98
2023-01-21T02:07:24.532Z,15.27
2023-01-21T02:09:55.516Z,13.57
2023-01-21T02:12:22.403Z,10.27
2023-01-21T02:14:51.475Z,8.43
2023-01-21T02:17:31.702Z,9.52
2023-01-21T02:20:35.598Z,13.80
2023-01-21T02:23:20.446Z,12.63
2023-01-21T02:26:05.117Z,12.80
2023-01-21T02:29:11.413Z,7.47
2023-01-21T02:32:11.944Z,17.10
2023-01-21T02:34:56.911Z,23.42
2023-01-21T02:37:43.223Z,14.88
2023-01-21T02:40:30.368Z,17.45
2023-01-21T02:43:07.786Z,22.75
2023-01-21T02:45:48.888Z,22.92
2023-01-21T02:48:25.181Z,24.08
2023-01-21T02:50:55.131Z,23.00
2023-01-21T02:53:32.867Z,23.33
2023-01-21T02:56:07.582Z,23.48
2023-01-21T02:58:37.553Z,20.95
2023-01-21T03:01:17.738Z,21.80
2023-01-21T03:04:02.700Z,24.50
2023-01-21T03:06:52.927Z,22.40
2023-01-21T03:09:25.568Z,21.40
2023-01-21T03:12:03.961Z,19.73
2023-01-21T03:15:13.510Z,24.67
2023-01-21T03:17:42.117Z,24.85
2023-01-21T03:20:14.758Z,18.25
2023-01-21T03:22:42.666Z,21.13
2023-01-21T03:25:11.723Z,21.90
2023-01-21T03:27:41.641Z,19.55
2023-01-21T03:30:22.816Z,21.80
2023-01-21T03:32:52.523Z,21.63
2023-01-21T03:35:31.641Z,20.88
2023-01-21T03:38:08.971Z,18.75
2023-01-21T03:40:42.246Z,16.13
2023-01-21T03:43:12.271Z,25.70
2023-01-21T03:45:49.286Z,22.25
2023-01-21T03:48:33.878Z,28.65
2023-01-21T03:51:05.539Z,17.65
2023-01-21T03:53:32.150Z,23.48
2023-01-21T03:55:59.932Z,32.20
2023-01-21T03:58:27.674Z,20.60
2023-01-21T04:00:54.163Z,21.58
2023-01-21T04:03:20.812Z,16.42
2023-01-21T04:05:52.650Z,17.50
2023-01-21T04:08:19.088Z,16.55
2023-01-21T04:10:47.862Z,22.77
2023-01-21T04:13:17.669Z,16.67
2023-01-21T04:15:49.440Z,18.67
2023-01-21T04:18:18.389Z,17.70
2023-01-21T04:20:46.624Z,15.38
2023-01-21T04:23:15.844Z,12.30
2023-01-21T04:25:49.363Z,19.15
2023-01-21T04:28:23.861Z,16.42
2023-01-21T04:30:50.548Z,16.77
2023-01-21T04:33:17.146Z,14.60
2023-01-21T04:35:52.619Z,22.17
2023-01-21T04:38:22.224Z,15.38
2023-01-21T04:40:48.759Z,19.17
2023-01-21T04:43:18.154Z,20.85
2023-01-21T04:45:44.702Z,19.98
2023-01-21T04:48:11.177Z,23.38
2023-01-21T04:50:47.664Z,23.00
2023-01-21T04:53:14.248Z,17.83
2023-01-21T04:55:42.925Z,22.92
2023-01-21T04:58:09.689Z,26.92
2023-01-21T05:00:36.439Z,26.65
2023-01-21T05:03:02.938Z,17.27
2023-01-21T05:05:35.516Z,15.55
2023-01-21T05:08:01.960Z,17.00
2023-01-21T05:10:28.344Z,17.33
2023-01-21T05:12:55.109Z,22.40
2023-01-21T05:15:21.919Z,19.83
2023-01-21T05:17:48.294Z,23.10
2023-01-21T05:20:15.019Z,20.77
2023-01-21T05:22:45.829Z,14.60
2023-01-21T05:25:12.259Z,18.05
2023-01-21T05:27:38.668Z,19.35
2023-01-21T05:30:07.870Z,16.08
2023-01-21T05:32:37.634Z,15.05
2023-01-21T05:35:05.128Z,24.73
2023-01-21T05:37:31.609Z,16.33
2023-01-21T05:39:57.967Z,18.73
2023-01-21T05:42:24.424Z,11.43
2023-01-21T05:44:55.536Z,20.15
2023-01-21T05:47:24.070Z,20.88
2023-01-21T05:49:50.475Z,25.50
2023-01-21T05:52:16.975Z,15.35
2023-01-21T05:55:01.012Z,16.85
2023-01-21T05:57:28.884Z,19.55
2023-01-21T06:01:10.775Z,21.55
2023-01-21T06:03:38.510Z,17.73
2023-01-21T06:06:05.402Z,15.02
2023-01-21T06:08:31.831Z,18.50
2023-01-21T06:10:58.278Z,16.08
2023-01-21T06:13:24.815Z,15.63
2023-01-21T06:15:54.916Z,18.65
2023-01-21T06:18:22.571Z,16.48
2023-01-21T06:20:48.998Z,16.55
2023-01-21T06:23:16.015Z,13.00
2023-01-21T06:25:43.610Z,14.02
2023-01-21T06:28:14.267Z,18.05
2023-01-21T06:30:43.239Z,15.07
2023-01-21T06:33:12.283Z,13.02
2023-01-21T06:35:39.165Z,21.88
2023-01-21T06:38:05.799Z,14.32
2023-01-21T06:40:32.373Z,20.88
2023-01-21T06:42:58.775Z,21.67
2023-01-21T06:45:25.230Z,20.23
2023-01-21T06:47:53.869Z,19.33
2023-01-21T06:50:20.340Z,18.42
2023-01-21T06:52:49.454Z,14.65
2023-01-21T06:55:18.394Z,13.18
2023-01-21T06:57:44.978Z,24.52
2023-01-21T07:00:12.999Z,14.52
2023-01-21T07:02:39.563Z,19.08
2023-01-21T07:05:06.493Z,25.35
2023-01-21T07:07:32.991Z,31.23
2023-01-21T07:09:59.403Z,21.42
2023-01-21T07:12:25.835Z,19.17
2023-01-21T07:14:52.210Z,22.85
2023-01-21T07:17:19.210Z,23.88
2023-01-21T07:19:45.651Z,19.95
2023-01-21T07:22:12.133Z,38.38
2023-01-21T07:24:38.800Z,34.85
2023-01-21T07:27:07.718Z,58.58
2023-01-21T07:29:34.121Z,50.83
2023-01-21T07:32:00.996Z,33.70
2023-01-21T07:34:27.483Z,34.80
2023-01-21T07:36:53.925Z,27.95
2023-01-21T07:39:22.860Z,29.90
2023-01-21T07:41:49.475Z,32.38
2023-01-21T07:44:16.146Z,32.63
2023-01-21T07:46:42.680Z,26.80
2023-01-21T07:49:16.997Z,25.48
2023-01-21T07:51:45.014Z,38.63
2023-01-21T07:54:14.822Z,40.13
2023-01-21T07:56:41.633Z,26.83
2023-01-21T07:59:09.706Z,33.70
2023-01-21T08:01:36.108Z,21.73
2023-01-21T08:04:02.563Z,27.95
2023-01-21T08:06:29.128Z,23.70
2023-01-21T08:08:55.639Z,23.50
2023-01-21T08:11:22.087Z,33.33
2023-01-21T08:13:50.480Z,23.35
2023-01-21T08:16:20.153Z,27.48
2023-01-21T08:18:46.871Z,29.63
2023-01-21T08:21:16.147Z,34.53
2023-01-21T08:23:42.645Z,33.75
2023-01-21T08:26:09.095Z,27.38
2023-01-21T08:28:38.445Z,26.90
2023-01-21T08:31:07.178Z,37.97
2023-01-21T08:33:36.150Z,36.17
2023-01-21T08:36:06.128Z,28.23
2023-01-21T08:38:35.723Z,22.45
2023-01-21T08:41:02.128Z,25.90
2023-01-21T08:43:28.813Z,28.50
2023-01-21T08:45:57.639Z,24.38
2023-01-21T08:48:24.172Z,34.30
2023-01-21T08:50:53.289Z,32.10
2023-01-21T08:53:22.279Z,25.27
2023-01-21T08:55:48.825Z,31.58
2023-01-21T08:58:20.218Z,32.50
2023-01-21T09:00:51.613Z,37.05
2023-01-21T09:03:19.589Z,32.15
2023-01-21T09:05:47.539Z,32.38
2023-01-21T09:08:14.134Z,33.80
2023-01-21T09:10:59.277Z,29.90
2023-01-21T09:13:28.326Z,23.58
2023-01-21T09:15:55.598Z,27.02
2023-01-21T09:18:24.475Z,29.20
2023-01-21T09:20:51.126Z,30.48
2023-01-21T09:23:27.001Z,28.98
2023-01-21T09:26:03.198Z,34.38
2023-01-21T09:28:30.959Z,28.05
2023-01-21T09:31:02.604Z,28.27
2023-01-21T09:33:30.897Z,29.10
2023-01-21T09:36:00.810Z,41.55
2023-01-21T09:38:28.683Z,31.77
2023-01-21T09:40:58.983Z,29.02
2023-01-21T09:43:38.983Z,34.92
2023-01-21T09:46:13.412Z,36.15
2023-01-21T09:48:47.724Z,29.08
2023-01-21T09:51:37.367Z,32.08
2023-01-21T09:54:10.500Z,29.75
2023-01-21T09:56:50.542Z,33.28
2023-01-21T09:59:23.777Z,32.78
2023-01-21T10:01:52.021Z,30.58
2023-01-21T10:04:32.828Z,35.00
2023-01-21T10:07:06.456Z,29.83
2023-01-21T10:09:41.332Z,31.58
2023-01-21T10:12:23.318Z,34.67
2023-01-21T10:15:18.051Z,28.20
2023-01-21T10:18:02.170Z,28.75
2023-01-21T10:20:36.765Z,28.13
2023-01-21T10:23:24.643Z,27.90
2023-01-21T10:25:54.340Z,26.20
2023-01-21T10:28:28.282Z,26.63
2023-01-21T10:31:00.602Z,36.05
2023-01-21T10:33:31.240Z,32.00
2023-01-21T10:36:11.034Z,34.13
2023-01-21T10:39:14.864Z,28.15
2023-01-21T10:41:55.980Z,28.58
2023-01-21T10:44:34.028Z,29.65
2023-01-21T10:47:07.106Z,29.63
2023-01-21T10:49:48.621Z,28.77
2023-01-21T10:52:21.039Z,33.13
2023-01-21T10:57:49.806Z,33.88
2023-01-21T11:00:24.696Z,34.13
2023-01-21T11:02:57.193Z,32.80
2023-01-21T11:07:52.490Z,31.10
2023-01-21T11:10:28.858Z,38.00
2023-01-21T11:12:55.946Z,29.15
2023-01-21T11:15:23.818Z,39.35
2023-01-21T11:18:02.237Z,29.10
2023-01-21T11:20:38.904Z,26.42
2023-01-21T11:23:24.487Z,26.52
2023-01-21T11:25:50.913Z,33.35
2023-01-21T11:28:24.856Z,28.92
2023-01-21T11:31:04.945Z,28.02
2023-01-21T11:33:31.748Z,28.00
2023-01-21T11:36:12.884Z,31.50
2023-01-21T11:38:39.955Z,29.60
2023-01-21T11:41:12.164Z,28.35
2023-01-21T11:43:49.869Z,27.48
2023-01-21T11:46:38.873Z,32.05
2023-01-21T11:49:08.182Z,33.88
2023-01-21T11:51:40.282Z,28.67
2023-01-21T11:54:15.927Z,26.58
2023-01-21T11:56:53.233Z,26.48
2023-01-21T11:59:25.147Z,28.42
2023-01-21T12:01:59.996Z,26.52
2023-01-21T12:04:26.827Z,28.75
2023-01-21T12:06:57.976Z,30.70
2023-01-21T12:09:25.097Z,28.23
2023-01-21T12:12:05.251Z,23.90
2023-01-21T12:14:47.455Z,25.75
2023-01-21T12:17:27.902Z,25.08
2023-01-21T12:20:05.381Z,28.27
2023-01-21T12:22:38.574Z,25.63
2023-01-21T12:25:26.826Z,27.27
2023-01-21T12:28:22.419Z,22.30
2023-01-21T12:31:07.390Z,22.85
2023-01-21T12:33:43.165Z,24.95
2023-01-21T12:36:21.663Z,26.35
2023-01-21T12:39:18.911Z,27.17
2023-01-21T12:41:53.455Z,24.05
2023-01-21T12:44:53.775Z,33.08
2023-01-21T12:47:29.332Z,26.65
2023-01-21T12:50:15.292Z,38.30
2023-01-21T12:53:02.496Z,34.58
2023-01-21T12:55:45.685Z,29.63
2023-01-21T12:58:15.824Z,28.25
2023-01-21T13:00:47.497Z,38.30
2023-01-21T13:03:32.409Z,35.35
2023-01-21T13:06:17.886Z,32.83
2023-01-21T13:09:03.896Z,22.95
2023-01-21T13:11:40.683Z,31.08
2023-01-21T13:14:07.116Z,32.65
2023-01-21T13:16:40.790Z,35.40
2023-01-21T13:19:12.885Z,29.92
2023-01-21T13:21:46.790Z,33.00
2023-01-21T13:24:16.178Z,23.02
2023-01-21T13:27:07.265Z,29.73
2023-01-21T13:29:49.799Z,25.85
2023-01-21T13:32:31.270Z,21.95
2023-01-21T13:34:57.654Z,29.63
2023-01-21T13:37:52.443Z,25.30
2023-01-21T13:40:30.309Z,25.80
2023-01-21T13:43:12.693Z,19.27
2023-01-21T13:46:16.842Z,20.88
2023-01-21T13:48:52.220Z,21.10
2023-01-21T13:51:31.647Z,22.65
2023-01-21T13:54:16.385Z,20.60
2023-01-21T13:56:58.618Z,21.02
2023-01-21T13:59:47.963Z,21.45
2023-01-21T14:02:28.137Z,20.88
2023-01-21T14:05:08.270Z,24.13
2023-01-21T14:08:33.474Z,25.83
2023-01-21T14:11:06.480Z,24.42
2023-01-21T14:13:54.637Z,18.90
2023-01-21T14:16:41.462Z,21.98
2023-01-21T14:19:30.166Z,24.27
2023-01-21T14:22:24.540Z,22.50
2023-01-21T14:25:17.419Z,22.48
2023-01-21T14:30:25.775Z,20.85
2023-01-21T14:33:09.097Z,21.88
2023-01-21T14:35:54.252Z,17.58
2023-01-21T14:38:36.987Z,25.48
2023-01-21T14:43:35.672Z,24.50
2023-01-21T14:46:22.066Z,18.33
2023-01-21T14:49:09.183Z,20.10
2023-01-21T14:51:47.676Z,22.75
2023-01-21T14:54:19.777Z,23.02
2023-01-21T14:57:21.749Z,18.30
2023-01-21T14:59:49.802Z,16.38
2023-01-21T15:02:35.634Z,15.80
2023-01-21T15:05:17.112Z,18.02
2023-01-21T15:07:47.117Z,22.67
2023-01-21T15:10:21.767Z,20.38
2023-01-21T15:12:57.563Z,26.15
2023-01-21T15:15:49.018Z,23.02
2023-01-21T15:18:48.379Z,24.85
2023-01-21T15:21:40.476Z,20.17
2023-01-21T15:24:21.053Z,22.17
2023-01-21T15:27:21.900Z,22.10
2023-01-21T15:29:54.126Z,19.88
2023-01-21T15:32:45.021Z,18.58
2023-01-21T15:35:44.479Z,20.33
2023-01-21T15:38:12.235Z,26.80
2023-01-21T15:40:47.701Z,24.23
2023-01-21T15:43:31.264Z,21.85
2023-01-21T15:46:16.215Z,32.25
2023-01-21T15:48:45.503Z,20.15
2023-01-21T15:51:29.306Z,20.73
2023-01-21T15:54:28.189Z,25.38
2023-01-21T15:57:07.920Z,22.98
2023-01-21T15:59:52.618Z,22.10
2023-01-21T16:02:19.006Z,24.63
2023-01-21T16:05:05.483Z,24.70
2023-01-21T16:07:54.146Z,25.70
2023-01-21T16:10:20.468Z,21.50
2023-01-21T16:12:52.730Z,14.93
2023-01-21T16:15:48.311Z,18.83
2023-01-21T16:18:20.855Z,36.97
2023-01-21T16:23:20.909Z,24.27
2023-01-21T16:25:49.372Z,23.45
2023-01-21T16:28:16.402Z,24.80
2023-01-21T16:30:53.920Z,25.13
2023-01-21T16:33:22.867Z,18.30
2023-01-21T16:35:52.089Z,17.25
2023-01-21T16:38:25.249Z,19.05
2023-01-21T16:41:11.696Z,21.58
2023-01-21T16:43:45.629Z,21.38
2023-01-21T16:46:18.130Z,18.98
2023-01-21T16:48:50.580Z,26.20
2023-01-21T16:51:28.518Z,22.60
2023-01-21T16:54:19.646Z,21.48
2023-01-21T16:56:48.529Z,13.95
2023-01-21T16:59:45.629Z,17.00
2023-01-21T17:02:19.754Z,24.77
2023-01-21T17:04:48.754Z,19.90
2023-01-21T17:07:33.426Z,20.27
2023-01-21T17:10:16.991Z,27.52
2023-01-21T17:12:53.811Z,26.30
2023-01-21T17:15:49.233Z,20.85
2023-01-21T17:18:21.770Z,40.95
2023-01-21T17:23:31.523Z,34.90
2023-01-21T17:26:04.534Z,47.28
2023-01-21T17:28:54.172Z,55.47
2023-01-21T17:31:29.599Z,53.38
2023-01-21T17:34:07.406Z,68.20
2023-01-21T17:36:41.913Z,48.28
2023-01-21T17:39:09.474Z,29.85
2023-01-21T17:41:40.935Z,22.58
2023-01-21T17:44:21.853Z,35.50
2023-01-21T17:46:57.643Z,26.42
2023-01-21T17:49:25.942Z,27.05
2023-01-21T17:51:56.626Z,21.92
2023-01-21T17:54:22.921Z,23.30
2023-01-21T17:56:57.792Z,21.45
2023-01-21T17:59:37.872Z,18.20
2023-01-21T18:02:16.124Z,22.23
2023-01-21T18:04:42.997Z,16.98
2023-01-21T18:07:21.191Z,25.55
2023-01-21T18:09:50.276Z,22.00
2023-01-21T18:12:19.434Z,22.83
2023-01-21T18:14:46.950Z,17.95
2023-01-21T18:17:17.649Z,20.65
2023-01-21T18:19:44.095Z,15.95
2023-01-21T18:22:26.030Z,22.25
2023-01-21T18:24:55.356Z,19.15
2023-01-21T18:27:27.602Z,13.30
2023-01-21T18:29:54.510Z,19.95
2023-01-21T18:32:22.675Z,19.80
2023-01-21T18:34:49.255Z,18.60
2023-01-21T18:37:17.786Z,17.83
2023-01-21T18:39:47.153Z,18.25
2023-01-21T18:42:18.006Z,22.17
2023-01-21T18:44:44.717Z,18.08
2023-01-21T18:47:13.925Z,16.13
2023-01-21T18:49:40.697Z,21.98
2023-01-21T18:52:09.726Z,19.40
2023-01-21T18:54:36.265Z,20.50
2023-01-21T18:57:05.317Z,25.42
2023-01-21T18:59:31.793Z,21.88
2023-01-21T19:01:58.206Z,17.30
2023-01-21T19:04:29.500Z,20.05
2023-01-21T19:06:56.281Z,18.75
2023-01-21T19:09:25.153Z,23.08
2023-01-21T19:11:51.873Z,27.13
2023-01-21T19:14:18.580Z,20.77
2023-01-21T19:16:45.938Z,26.92
2023-01-21T19:19:20.824Z,17.60
2023-01-21T19:21:47.752Z,17.65
2023-01-21T19:24:14.188Z,25.98
2023-01-21T19:26:40.695Z,19.75
2023-01-21T19:29:15.270Z,23.50
2023-01-21T19:31:42.457Z,19.10
2023-01-21T19:34:10.762Z,28.10
2023-01-21T19:36:39.125Z,17.00
2023-01-21T19:39:17.755Z,20.92
2023-01-21T19:41:46.363Z,20.73
2023-01-21T19:44:12.849Z,16.88
2023-01-21T19:46:39.498Z,16.75
2023-01-21T19:49:16.732Z,15.63
2023-01-21T19:51:44.501Z,16.20
2023-01-21T19:54:10.895Z,19.08
2023-01-21T19:56:37.378Z,21.73
2023-01-21T19:59:04.347Z,23.08
2023-01-21T20:01:33.188Z,19.88
2023-01-21T20:04:00.972Z,18.10
2023-01-21T20:06:34.284Z,19.08
2023-01-21T20:09:00.841Z,23.38
2023-01-21T20:11:27.315Z,18.85
2023-01-21T20:13:56.223Z,18.33
2023-01-21T20:16:23.804Z,20.88
2023-01-21T20:18:50.424Z,17.17
2023-01-21T20:21:19.469Z,21.75
2023-01-21T20:23:46.261Z,27.25
2023-01-21T20:26:17.459Z,34.42
2023-01-21T20:28:47.782Z,38.30
2023-01-21T20:31:14.309Z,34.30
2023-01-21T20:33:44.106Z,54.63
2023-01-21T20:36:22.617Z,52.70
2023-01-21T20:38:49.870Z,51.03
2023-01-21T20:41:19.326Z,35.17
2023-01-21T20:43:48.339Z,33.80
2023-01-21T20:46:34.949Z,34.38
2023-01-21T20:49:03.868Z,35.75
2023-01-21T20:51:33.595Z,32.08
2023-01-21T20:53:59.936Z,28.15
2023-01-21T20:56:33.100Z,32.72
2023-01-21T20:59:02.879Z,22.98
2023-01-21T21:01:31.091Z,31.33
2023-01-21T21:04:00.119Z,27.27
2023-01-21T21:06:28.575Z,20.63
2023-01-21T21:08:55.457Z,44.88
2023-01-21T21:11:22.033Z,34.88
2023-01-21T21:13:51.736Z,27.58
2023-01-21T21:16:21.130Z,19.15
2023-01-21T21:18:48.568Z,37.40
2023-01-21T21:21:16.214Z,29.73
2023-01-21T21:23:46.502Z,28.90
2023-01-21T21:26:33.164Z,28.63
2023-01-21T21:28:59.958Z,25.75
2023-01-21T21:31:31.815Z,21.15
2023-01-21T21:33:58.575Z,24.70
2023-01-21T21:36:27.681Z,24.45
2023-01-21T21:38:55.718Z,24.80
2023-01-21T21:41:43.688Z,19.52
2023-01-21T21:44:10.699Z,22.85
2023-01-21T21:46:56.428Z,19.50
2023-01-21T21:49:23.385Z,20.42
2023-01-21T21:51:52.430Z,19.83
2023-01-21T21:54:19.228Z,18.77
2023-01-21T21:56:48.744Z,18.65
2023-01-21T21:59:15.648Z,26.08
2023-01-21T22:01:44.072Z,21.23
2023-01-21T22:04:10.824Z,22.60
2023-01-21T22:06:37.321Z,24.25
2023-01-21T22:09:04.038Z,24.58
2023-01-21T22:11:30.604Z,21.50
2023-01-21T22:13:57.664Z,22.73
2023-01-21T22:16:27.083Z,15.32
2023-01-21T22:18:54.901Z,23.63
2023-01-21T22:21:29.077Z,17.13
2023-01-21T22:23:55.670Z,20.52
2023-01-21T22:26:25.442Z,21.45
2023-01-21T22:28:52.494Z,21.10
2023-01-21T22:31:21.604Z,24.27
2023-01-21T22:33:48.657Z,20.90
2023-01-21T22:36:17.915Z,20.20
2023-01-21T22:38:45.387Z,21.58
2023-01-21T22:41:16.416Z,19.92
2023-01-21T22:43:50.648Z,30.90
2023-01-21T22:46:22.283Z,22.35
2023-01-21T22:48:49.056Z,20.13
2023-01-21T22:51:18.641Z,19.85
2023-01-21T22:53:45.339Z,17.80
2023-01-21T22:56:13.865Z,18.15
2023-01-21T22:58:41.249Z,19.85
2023-01-21T23:01:21.057Z,17.13
2023-01-21T23:03:47.672Z,18.70
2023-01-21T23:06:14.139Z,15.75
2023-01-21T23:08:40.644Z,17.02
2023-01-21T23:11:08.495Z,19.80
2023-01-21T23:13:40.419Z,24.17
2023-01-21T23:16:10.985Z,20.17
2023-01-21T23:18:42.176Z,21.88
2023-01-21T23:21:20.578Z,17.58
2023-01-21T23:23:47.759Z,18.45
2023-01-21T23:26:15.445Z,22.52
2023-01-21T23:28:44.433Z,20.92
2023-01-21T23:31:14.474Z,15.68
2023-01-21T23:33:41.737Z,19.27
2023-01-21T23:36:11.129Z,19.75
2023-01-21T23:38:37.563Z,18.95
2023-01-21T23:41:11.982Z,24.58
2023-01-21T23:43:41.411Z,19.13
2023-01-21T23:46:11.628Z,18.95
2023-01-21T23:48:39.295Z,17.08
2023-01-21T23:51:08.353Z,19.33
2023-01-21T23:53:34.798Z,20.17
2023-01-21T23:56:15.940Z,16.85
2023-01-21T23:58:42.404Z,15.88
